Time;durP1;ratioP1;P1;durP2;ratioP2;P2;SDS_P1;SDS_P2;PMS_P1;PMS_P2;Temp;Humidity;BMP_temperature;BMP_pressure;BME280_temperature;BME280_humidity;BME280_pressure;Samples;Min_cycle;Max_cycle;Signal;HPM_P1;HPM_P2
2023/05/09 00:01:49;;;;;;;175.02;36.42;;;;;;;;;;6218891;23;20004;-91
2023/05/09 00:04:18;;;;;;;169.43;36.33;;;;;;;;;;6193000;23;20012;-90
2023/05/09 00:06:44;;;;;;;158.25;35.60;;;;;;;;;;6192313;23;20012;-89
2023/05/09 00:09:11;;;;;;;158.27;35.70;;;;;;;;;;6193649;23;20008;-90
2023/05/09 00:11:41;;;;;;;144.75;36.47;;;;;;;;;;6216652;23;20504;-91
2023/05/09 00:14:07;;;;;;;157.57;37.38;;;;;;;;;;6217229;23;20001;-90
2023/05/09 00:16:35;;;;;;;153.57;37.10;;;;;;;;;;6216709;23;20058;-91
2023/05/09 00:19:02;;;;;;;144.23;38.83;;;;;;;;;;6217644;23;20074;-90
2023/05/09 00:21:29;;;;;;;150.73;36.65;;;;;;;;;;6200331;22;20021;-91
2023/05/09 00:23:55;;;;;;;161.82;36.63;;;;;;;;;;6162642;23;20096;-90
2023/05/09 00:26:22;;;;;;;157.57;37.42;;;;;;;;;;6162778;23;20501;-90
2023/05/09 00:28:48;;;;;;;153.23;35.70;;;;;;;;;;6161501;23;20009;-91
2023/05/09 00:31:14;;;;;;;167.63;38.63;;;;;;;;;;6186283;23;20009;-91
2023/05/09 00:33:40;;;;;;;151.48;37.50;;;;;;;;;;6187821;23;20091;-91
2023/05/09 00:36:07;;;;;;;184.10;39.35;;;;;;;;;;6163160;23;20020;-90
2023/05/09 00:38:33;;;;;;;166.35;38.95;;;;;;;;;;6187216;23;20061;-90
2023/05/09 00:40:59;;;;;;;161.30;36.67;;;;;;;;;;6164216;23;20412;-91
2023/05/09 00:43:26;;;;;;;170.25;40.08;;;;;;;;;;6163592;23;20016;-90
2023/05/09 00:45:52;;;;;;;162.20;39.28;;;;;;;;;;6187994;23;20013;-90
2023/05/09 00:48:18;;;;;;;169.27;39.28;;;;;;;;;;6215180;23;20000;-90
2023/05/09 00:50:47;;;;;;;176.98;40.13;;;;;;;;;;6188217;23;20017;-91
2023/05/09 00:53:14;;;;;;;175.68;40.15;;;;;;;;;;6165624;23;20012;-90
2023/05/09 00:55:40;;;;;;;179.70;41.65;;;;;;;;;;6165496;23;20040;-90
2023/05/09 00:58:06;;;;;;;198.73;43.47;;;;;;;;;;6165805;23;20013;-90
2023/05/09 01:00:32;;;;;;;178.15;40.10;;;;;;;;;;6165221;23;20020;-91
2023/05/09 01:02:58;;;;;;;195.70;42.97;;;;;;;;;;6164374;23;20240;-92
2023/05/09 01:05:27;;;;;;;195.63;44.13;;;;;;;;;;6164294;23;20009;-91
2023/05/09 01:07:53;;;;;;;182.18;45.78;;;;;;;;;;6187852;23;20011;-90
2023/05/09 01:10:29;;;;;;;201.60;42.45;;;;;;;;;;6188223;23;20019;-92
2023/05/09 01:13:14;;;;;;;188.55;43.50;;;;;;;;;;6189637;23;20054;-91
2023/05/09 01:15:48;;;;;;;197.85;42.88;;;;;;;;;;6215834;23;20084;-90
2023/05/09 01:18:17;;;;;;;184.82;42.20;;;;;;;;;;6189272;23;20072;-91
2023/05/09 01:21:07;;;;;;;173.75;41.30;;;;;;;;;;6192616;22;20049;-91
2023/05/09 01:23:52;;;;;;;185.20;41.70;;;;;;;;;;6188054;23;20072;-89
2023/05/09 01:26:27;;;;;;;177.70;42.22;;;;;;;;;;6190007;23;20028;-91
2023/05/09 01:29:12;;;;;;;179.20;40.00;;;;;;;;;;6189852;23;20032;-91
2023/05/09 01:31:43;;;;;;;169.45;42.72;;;;;;;;;;6189567;23;20467;-91
2023/05/09 01:34:10;;;;;;;176.50;42.45;;;;;;;;;;6189666;23;20011;-91
2023/05/09 01:36:37;;;;;;;178.95;41.53;;;;;;;;;;6190607;23;20087;-91
2023/05/09 01:39:04;;;;;;;179.60;42.35;;;;;;;;;;6163996;23;20016;-90
2023/05/09 01:41:31;;;;;;;172.50;41.40;;;;;;;;;;6189235;23;20019;-91
2023/05/09 01:43:59;;;;;;;184.25;41.33;;;;;;;;;;6189726;23;20015;-91
2023/05/09 01:46:26;;;;;;;169.82;40.70;;;;;;;;;;6189834;23;20016;-91
2023/05/09 01:48:53;;;;;;;179.07;41.42;;;;;;;;;;6189578;23;20454;-90
2023/05/09 01:51:20;;;;;;;171.00;43.10;;;;;;;;;;6165238;23;20451;-91
2023/05/09 01:53:47;;;;;;;178.52;40.88;;;;;;;;;;6189602;23;20005;-90
2023/05/09 01:56:20;;;;;;;168.50;39.80;;;;;;;;;;6189350;23;20008;-91
2023/05/09 01:58:48;;;;;;;200.60;43.40;;;;;;;;;;6164915;23;20012;-91
2023/05/09 02:01:15;;;;;;;175.27;42.13;;;;;;;;;;6165514;23;20008;-90
2023/05/09 02:03:42;;;;;;;170.48;39.40;;;;;;;;;;6189017;23;20432;-91
2023/05/09 02:06:09;;;;;;;168.13;41.10;;;;;;;;;;6189188;23;20016;-91
2023/05/09 02:08:35;;;;;;;172.07;40.80;;;;;;;;;;6190831;23;20008;-91
2023/05/09 02:11:03;;;;;;;184.50;42.03;;;;;;;;;;6215520;23;20004;-90
2023/05/09 02:13:29;;;;;;;169.48;37.15;;;;;;;;;;6166048;23;20099;-91
2023/05/09 02:15:56;;;;;;;170.80;40.05;;;;;;;;;;6189970;23;20040;-91
2023/05/09 02:18:22;;;;;;;158.40;40.75;;;;;;;;;;6189162;23;20013;-91
2023/05/09 02:20:48;;;;;;;176.80;39.90;;;;;;;;;;6168064;22;20466;-91
2023/05/09 02:23:15;;;;;;;178.07;41.25;;;;;;;;;;6189078;23;20341;-91
2023/05/09 02:25:41;;;;;;;185.80;41.55;;;;;;;;;;6164861;23;20425;-91
2023/05/09 02:28:08;;;;;;;183.05;39.10;;;;;;;;;;6164198;23;20343;-91
2023/05/09 02:30:45;;;;;;;177.88;39.72;;;;;;;;;;6189288;23;20434;-91
2023/05/09 02:33:12;;;;;;;184.65;42.05;;;;;;;;;;6164657;23;20017;-91
2023/05/09 02:35:41;;;;;;;177.43;41.38;;;;;;;;;;6189532;23;20343;-92
2023/05/09 02:38:07;;;;;;;174.20;42.15;;;;;;;;;;6189263;23;20004;-92
2023/05/09 02:40:33;;;;;;;178.05;42.33;;;;;;;;;;6189599;23;20013;-90
2023/05/09 02:42:59;;;;;;;165.05;43.53;;;;;;;;;;6190211;23;20020;-91
2023/05/09 02:45:25;;;;;;;196.63;44.65;;;;;;;;;;6164678;23;20197;-92
2023/05/09 02:47:51;;;;;;;187.60;46.20;;;;;;;;;;6190522;23;20032;-92
2023/05/09 02:50:18;;;;;;;209.07;48.38;;;;;;;;;;6165190;23;20013;-92
2023/05/09 02:52:52;;;;;;;204.63;47.85;;;;;;;;;;6188358;23;20008;-92
2023/05/09 02:55:19;;;;;;;211.73;48.08;;;;;;;;;;6164440;23;20016;-92
2023/05/09 02:57:45;;;;;;;216.40;48.75;;;;;;;;;;6163335;23;20020;-92
2023/05/09 03:00:11;;;;;;;187.32;47.45;;;;;;;;;;6164153;23;20404;-91
2023/05/09 03:02:38;;;;;;;197.38;47.28;;;;;;;;;;6188365;23;20005;-92
2023/05/09 03:05:04;;;;;;;203.13;46.33;;;;;;;;;;6187789;23;20009;-92
2023/05/09 03:07:31;;;;;;;182.45;45.60;;;;;;;;;;6163180;23;20033;-92
2023/05/09 03:09:57;;;;;;;183.13;45.88;;;;;;;;;;6162689;23;20404;-93
2023/05/09 03:12:23;;;;;;;208.30;45.83;;;;;;;;;;6162054;23;20343;-92
2023/05/09 03:14:49;;;;;;;186.82;46.05;;;;;;;;;;6163902;23;20015;-92
2023/05/09 03:17:19;;;;;;;213.32;46.78;;;;;;;;;;6163465;23;20009;-92
2023/05/09 03:19:45;;;;;;;189.85;47.30;;;;;;;;;;6164339;23;20009;-92
2023/05/09 03:22:11;;;;;;;175.95;46.28;;;;;;;;;;6193619;22;20111;-92
2023/05/09 03:24:38;;;;;;;210.23;46.85;;;;;;;;;;6188972;23;20005;-92
2023/05/09 03:27:04;;;;;;;176.43;45.20;;;;;;;;;;6188895;23;20008;-91
2023/05/09 03:29:30;;;;;;;193.55;46.45;;;;;;;;;;6163602;23;20009;-91
2023/05/09 03:31:56;;;;;;;191.05;48.67;;;;;;;;;;6188295;23;20012;-91
2023/05/09 03:34:23;;;;;;;213.40;47.00;;;;;;;;;;6163162;23;20431;-92
2023/05/09 03:36:49;;;;;;;198.60;47.72;;;;;;;;;;6165613;23;20005;-92
2023/05/09 03:39:15;;;;;;;209.18;48.65;;;;;;;;;;6164157;23;20501;-91
2023/05/09 03:41:43;;;;;;;199.95;48.33;;;;;;;;;;6165159;23;20451;-93
2023/05/09 03:44:09;;;;;;;203.07;47.08;;;;;;;;;;6166122;23;20462;-93
2023/05/09 03:46:36;;;;;;;178.68;48.33;;;;;;;;;;6188419;23;20012;-93
2023/05/09 03:49:03;;;;;;;199.90;49.90;;;;;;;;;;6163687;23;20386;-91
2023/05/09 03:51:31;;;;;;;191.07;44.38;;;;;;;;;;6163874;23;20104;-92
2023/05/09 03:54:00;;;;;;;193.25;48.83;;;;;;;;;;6189217;23;20182;-92
2023/05/09 03:56:30;;;;;;;195.63;46.45;;;;;;;;;;6187866;23;20532;-91
2023/05/09 03:58:56;;;;;;;191.15;47.38;;;;;;;;;;6188056;23;20008;-92
2023/05/09 04:01:22;;;;;;;179.75;46.05;;;;;;;;;;6162496;23;20564;-90
2023/05/09 04:03:49;;;;;;;198.02;47.15;;;;;;;;;;6162933;23;20017;-92
2023/05/09 04:06:15;;;;;;;186.52;47.13;;;;;;;;;;6187748;23;20008;-92
2023/05/09 04:08:42;;;;;;;180.07;47.72;;;;;;;;;;6164183;23;20028;-91
2023/05/09 04:11:08;;;;;;;184.45;46.95;;;;;;;;;;6160444;23;20009;-92
2023/05/09 04:13:34;;;;;;;166.93;46.13;;;;;;;;;;6164250;23;20118;-93
2023/05/09 04:16:03;;;;;;;200.27;49.70;;;;;;;;;;6162698;23;20347;-93
2023/05/09 04:18:30;;;;;;;181.48;47.20;;;;;;;;;;6162751;23;20039;-91
2023/05/09 04:21:09;;;;;;;183.57;45.70;;;;;;;;;;6175113;22;20044;-92
2023/05/09 04:23:37;;;;;;;186.80;45.97;;;;;;;;;;6197158;23;20026;-92
2023/05/09 04:26:04;;;;;;;173.85;45.08;;;;;;;;;;6222374;23;20480;-92
2023/05/09 04:28:34;;;;;;;199.23;47.92;;;;;;;;;;6198774;23;20027;-91
2023/05/09 04:31:11;;;;;;;170.80;44.70;;;;;;;;;;6205332;23;20050;-90
2023/05/09 04:33:38;;;;;;;177.05;45.50;;;;;;;;;;6234097;23;19992;-91
2023/05/09 04:36:05;;;;;;;170.65;43.85;;;;;;;;;;6210997;23;20022;-92
2023/05/09 04:38:31;;;;;;;153.68;43.13;;;;;;;;;;6211742;23;20019;-92
2023/05/09 04:41:06;;;;;;;176.82;45.25;;;;;;;;;;6208297;23;20012;-91
2023/05/09 04:43:32;;;;;;;147.02;43.95;;;;;;;;;;6205997;23;20016;-92
2023/05/09 04:46:02;;;;;;;157.13;43.53;;;;;;;;;;6206895;23;20012;-92
2023/05/09 04:48:28;;;;;;;169.65;43.58;;;;;;;;;;6202505;23;20008;-93
2023/05/09 04:50:54;;;;;;;158.30;43.35;;;;;;;;;;6227095;23;20039;-94
2023/05/09 04:53:21;;;;;;;139.57;42.85;;;;;;;;;;6225893;23;20012;-92
2023/05/09 04:55:47;;;;;;;146.73;43.05;;;;;;;;;;6196447;23;20020;-91
2023/05/09 04:58:14;;;;;;;143.40;41.35;;;;;;;;;;6196290;23;20075;-91
2023/05/09 05:00:43;;;;;;;142.55;41.42;;;;;;;;;;6194504;23;20015;-91
2023/05/09 05:03:09;;;;;;;123.60;40.03;;;;;;;;;;6193927;23;20389;-92
2023/05/09 05:05:35;;;;;;;123.03;40.25;;;;;;;;;;6220046;23;20107;-91
2023/05/09 05:08:02;;;;;;;116.00;38.83;;;;;;;;;;6196335;23;20005;-93
2023/05/09 05:10:31;;;;;;;127.05;41.60;;;;;;;;;;6195023;23;20035;-92
2023/05/09 05:13:00;;;;;;;99.28;36.40;;;;;;;;;;6197109;23;20012;-93
2023/05/09 05:15:29;;;;;;;117.40;39.50;;;;;;;;;;6223331;23;20054;-94
2023/05/09 05:17:56;;;;;;;114.15;38.05;;;;;;;;;;6197700;23;20012;-95
2023/05/09 05:20:22;;;;;;;107.72;39.20;;;;;;;;;;6224568;23;20012;-95
2023/05/09 05:22:48;;;;;;;104.70;39.22;;;;;;;;;;6176553;22;20048;-94
2023/05/09 05:25:16;;;;;;;98.30;36.65;;;;;;;;;;6168241;23;20012;-94
2023/05/09 05:27:42;;;;;;;71.07;28.83;;;;;;;;;;6168651;23;20005;-94
2023/05/09 05:30:09;;;;;;;86.95;32.05;;;;;;;;;;6167997;23;20125;-93
2023/05/09 05:32:38;;;;;;;66.30;27.20;;;;;;;;;;6169822;23;20005;-94
2023/05/09 05:35:05;;;;;;;70.15;28.98;;;;;;;;;;6170375;23;20008;-96
2023/05/09 05:37:31;;;;;;;63.53;28.80;;;;;;;;;;6196129;23;20286;-95
2023/05/09 05:39:57;;;;;;;64.53;27.58;;;;;;;;;;6167618;23;20016;-94
2023/05/09 05:42:23;;;;;;;57.63;25.40;;;;;;;;;;6170890;23;20034;-93
2023/05/09 05:44:55;;;;;;;48.97;24.20;;;;;;;;;;6173464;23;20056;-94
2023/05/09 05:47:32;;;;;;;55.70;24.00;;;;;;;;;;6196079;23;20013;-93
2023/05/09 05:50:12;;;;;;;;;;;;;;;;;;;;;
2023/05/09 05:52:40;;;;;;;48.90;21.90;;;;;;;;;;6221917;23;20028;-95
2023/05/09 05:55:06;;;;;;;49.20;23.83;;;;;;;;;;6194223;23;20028;-95
2023/05/09 05:57:42;;;;;;;46.30;23.27;;;;;;;;;;6170812;23;20051;-96
2023/05/09 06:00:13;;;;;;;40.58;21.85;;;;;;;;;;6195694;23;20060;-95
2023/05/09 06:02:42;;;;;;;48.85;23.27;;;;;;;;;;6193631;23;20001;-94
2023/05/09 06:07:55;;;;;;;45.45;21.77;;;;;;;;;;6177661;23;20008;-95
2023/05/09 06:10:22;;;;;;;46.80;22.85;;;;;;;;;;6167480;23;20016;-94
2023/05/09 06:13:10;;;;;;;47.88;22.83;;;;;;;;;;6170433;23;20066;-96
2023/05/09 06:15:46;;;;;;;46.72;23.02;;;;;;;;;;6205172;23;20204;-93
2023/05/09 06:18:15;;;;;;;48.17;21.52;;;;;;;;;;6177643;23;20043;-94
2023/05/09 06:20:45;;;;;;;51.35;23.17;;;;;;;;;;6168090;23;20123;-95
2023/05/09 06:23:11;;;;;;;49.95;23.17;;;;;;;;;;6172178;22;20211;-94
2023/05/09 06:25:46;;;;;;;44.40;22.55;;;;;;;;;;6176288;23;20012;-94
2023/05/09 06:28:18;;;;;;;47.13;23.10;;;;;;;;;;6208010;23;20355;-95
2023/05/09 06:31:12;;;;;;;55.58;24.05;;;;;;;;;;6183788;23;20012;-94
2023/05/09 06:33:51;;;;;;;49.45;23.58;;;;;;;;;;6207001;23;20347;-95
2023/05/09 06:36:17;;;;;;;46.88;23.50;;;;;;;;;;6173130;23;19997;-94
2023/05/09 06:38:44;;;;;;;45.78;22.67;;;;;;;;;;6172919;23;20099;-95
2023/05/09 06:41:10;;;;;;;47.97;22.80;;;;;;;;;;6172487;23;20013;-94
2023/05/09 06:43:36;;;;;;;52.25;24.42;;;;;;;;;;6196745;23;20015;-94
2023/05/09 06:46:06;;;;;;;50.08;22.83;;;;;;;;;;6195481;23;20092;-94
2023/05/09 06:48:32;;;;;;;59.47;26.02;;;;;;;;;;6168221;23;20063;-95
2023/05/09 06:50:58;;;;;;;61.78;25.52;;;;;;;;;;6169012;23;20008;-94
2023/05/09 06:53:35;;;;;;;61.22;26.13;;;;;;;;;;6203273;23;20007;-93
2023/05/09 06:56:21;;;;;;;57.47;27.27;;;;;;;;;;6183596;23;20280;-94
2023/05/09 06:58:52;;;;;;;60.13;25.70;;;;;;;;;;6184558;23;19993;-95
2023/05/09 07:01:34;;;;;;;54.50;25.67;;;;;;;;;;6198841;23;20012;-95
2023/05/09 07:04:02;;;;;;;56.97;25.38;;;;;;;;;;6194802;23;20015;-94
2023/05/09 07:06:32;;;;;;;59.40;24.92;;;;;;;;;;6170580;23;20402;-94
2023/05/09 07:09:03;;;;;;;55.50;24.00;;;;;;;;;;6194211;23;20005;-94
2023/05/09 07:11:42;;;;;;;61.28;26.20;;;;;;;;;;6195130;23;20005;-94
2023/05/09 07:14:09;;;;;;;59.53;27.20;;;;;;;;;;6195058;23;20435;-93
2023/05/09 07:16:35;;;;;;;63.30;26.05;;;;;;;;;;6195139;23;20015;-93
2023/05/09 07:19:02;;;;;;;54.70;24.17;;;;;;;;;;6170197;23;20198;-94
2023/05/09 07:21:33;;;;;;;54.80;25.98;;;;;;;;;;6200959;22;20066;-95
2023/05/09 07:24:06;;;;;;;54.05;26.10;;;;;;;;;;6226041;23;20016;-95
2023/05/09 07:26:32;;;;;;;62.97;27.50;;;;;;;;;;6201677;23;20103;-94
2023/05/09 07:28:58;;;;;;;58.63;27.65;;;;;;;;;;6200095;23;20009;-92
2023/05/09 07:31:30;;;;;;;72.80;29.70;;;;;;;;;;6210666;23;20008;-94
2023/05/09 07:33:57;;;;;;;69.25;29.15;;;;;;;;;;6207275;23;20008;-93
2023/05/09 07:36:38;;;;;;;58.28;27.38;;;;;;;;;;6225560;23;20008;-95
2023/05/09 07:39:06;;;;;;;63.17;26.50;;;;;;;;;;6210038;23;20377;-94
2023/05/09 07:41:33;;;;;;;51.97;23.85;;;;;;;;;;6206912;23;20092;-94
2023/05/09 07:44:18;;;;;;;58.22;27.42;;;;;;;;;;6210190;23;20065;-92
2023/05/09 07:47:04;;;;;;;64.25;28.27;;;;;;;;;;6236586;23;20008;-94
2023/05/09 07:52:39;;;;;;;55.88;27.77;;;;;;;;;;6234295;23;20519;-93
2023/05/09 07:55:06;;;;;;;57.75;26.65;;;;;;;;;;6233551;23;19996;-94
2023/05/09 08:00:22;;;;;;;57.10;25.33;;;;;;;;;;6246907;23;20027;-94
2023/05/09 08:03:13;;;;;;;55.42;27.67;;;;;;;;;;6211332;23;20008;-94
2023/05/09 08:05:39;;;;;;;57.42;27.65;;;;;;;;;;6226114;23;20040;-93
2023/05/09 08:08:06;;;;;;;63.13;28.40;;;;;;;;;;6224161;23;20107;-93
2023/05/09 08:10:36;;;;;;;55.22;27.60;;;;;;;;;;6203898;23;20008;-93
2023/05/09 08:13:15;;;;;;;51.33;26.90;;;;;;;;;;6236007;23;20594;-95
2023/05/09 08:15:42;;;;;;;63.13;28.88;;;;;;;;;;6211178;23;20465;-94
2023/05/09 08:18:25;;;;;;;65.85;31.20;;;;;;;;;;6210893;23;20011;-94
2023/05/09 08:21:00;;;;;;;71.30;29.90;;;;;;;;;;6205394;23;20016;-93
2023/05/09 08:24:10;;;;;;;63.10;27.55;;;;;;;;;;6173898;23;20024;-94
2023/05/09 08:27:06;;;;;;;;;;;;;;;;;;;;;
2023/05/09 08:29:45;;;;;;;88.43;33.40;;;;;;;;;;6195066;23;20039;-94
2023/05/09 08:32:18;;;;;;;73.88;32.25;;;;;;;;;;6153510;23;20247;-93
2023/05/09 08:34:59;;;;;;;68.95;33.50;;;;;;;;;;6192412;23;20054;-95
2023/05/09 08:37:35;;;;;;;79.88;32.67;;;;;;;;;;6147083;23;20024;-93
2023/05/09 08:40:05;;;;;;;77.78;34.97;;;;;;;;;;6143450;23;20013;-94
2023/05/09 08:42:43;;;;;;;78.45;31.83;;;;;;;;;;6163024;23;20005;-95
2023/05/09 08:45:22;;;;;;;70.85;31.90;;;;;;;;;;6188091;23;20024;-94
2023/05/09 08:47:48;;;;;;;85.05;33.83;;;;;;;;;;6164211;23;20047;-93
2023/05/09 08:50:16;;;;;;;74.93;33.40;;;;;;;;;;6138408;23;20032;-93
2023/05/09 08:52:42;;;;;;;69.50;31.95;;;;;;;;;;6168559;23;20000;-94
2023/05/09 08:55:10;;;;;;;77.70;32.47;;;;;;;;;;6190998;23;20446;-94
2023/05/09 08:57:36;;;;;;;77.45;31.38;;;;;;;;;;6205413;23;20030;-95
2023/05/09 09:00:10;;;;;;;80.80;33.95;;;;;;;;;;6230716;23;20123;-95
2023/05/09 09:02:43;;;;;;;74.45;33.30;;;;;;;;;;6230161;23;20004;-94
2023/05/09 09:05:16;;;;;;;70.35;30.13;;;;;;;;;;6230444;23;20008;-94
2023/05/09 09:07:43;;;;;;;72.80;31.55;;;;;;;;;;6205860;23;20004;-94
2023/05/09 09:10:11;;;;;;;74.50;32.53;;;;;;;;;;6228670;23;20004;-95
2023/05/09 09:12:57;;;;;;;;;;;;;;;;;;;;;
2023/05/09 09:15:30;;;;;;;74.05;29.75;;;;;;;;;;6233436;23;20032;-94
2023/05/09 09:17:59;;;;;;;70.28;28.85;;;;;;;;;;6233963;23;20035;-93
2023/05/09 09:20:26;;;;;;;64.93;29.50;;;;;;;;;;6234001;23;20508;-95
2023/05/09 09:23:02;;;;;;;73.55;30.42;;;;;;;;;;6267434;22;20004;-94
2023/05/09 09:25:28;;;;;;;70.32;29.10;;;;;;;;;;6241113;23;20043;-93
2023/05/09 09:27:54;;;;;;;55.28;26.35;;;;;;;;;;6215426;23;20008;-94
2023/05/09 09:30:23;;;;;;;68.65;31.58;;;;;;;;;;6238707;23;20106;-95
2023/05/09 09:33:08;;;;;;;70.57;28.02;;;;;;;;;;6239451;23;20015;-94
2023/05/09 09:35:38;;;;;;;63.07;28.10;;;;;;;;;;6240405;23;20016;-95
2023/05/09 09:38:09;;;;;;;59.45;25.40;;;;;;;;;;6259705;22;20008;-95
2023/05/09 09:40:38;;;;;;;57.67;28.25;;;;;;;;;;6207326;23;20035;-94
2023/05/09 09:43:06;;;;;;;51.42;26.00;;;;;;;;;;6203846;23;20039;-94
2023/05/09 09:45:51;;;;;;;;;;;;;;;;;;;;;
2023/05/09 09:48:18;;;;;;;53.75;25.10;;;;;;;;;;6251813;23;20031;-94
2023/05/09 09:50:50;;;;;;;55.78;25.63;;;;;;;;;;6225400;23;20012;-95
2023/05/09 09:53:25;;;;;;;48.38;22.02;;;;;;;;;;6229954;23;20000;-94
2023/05/09 09:55:52;;;;;;;;;;;;;;;;;;6227202;23;20020;-93
2023/05/09 09:58:24;;;;;;;55.78;25.65;;;;;;;;;;6236062;23;19927;-94
2023/05/09 10:01:13;;;;;;;55.95;26.45;;;;;;;;;;6211820;23;20073;-96
2023/05/09 10:03:56;;;;;;;;;;;;;;;;;;;;;
2023/05/09 10:06:24;;;;;;;51.72;23.20;;;;;;;;;;6253321;23;20488;-95
2023/05/09 10:08:53;;;;;;;48.80;23.38;;;;;;;;;;6202451;23;20011;-96
2023/05/09 10:11:20;;;;;;;50.42;24.33;;;;;;;;;;6226157;23;20007;-96
2023/05/09 10:13:55;;;;;;;48.47;23.67;;;;;;;;;;6202996;23;20016;-95
2023/05/09 10:16:44;;;;;;;35.03;15.15;;;;;;;;;;6202279;23;20095;-95
2023/05/09 10:19:33;;;;;;;49.53;22.63;;;;;;;;;;6253250;23;20042;-95
2023/05/09 10:21:58;;;;;;;51.08;23.42;;;;;;;;;;6228571;23;20016;-96
2023/05/09 10:24:47;;;;;;;40.05;21.90;;;;;;;;;;6202277;22;20024;-96
2023/05/09 10:27:21;;;;;;;43.15;21.30;;;;;;;;;;6209619;23;20036;-96
2023/05/09 10:30:09;;;;;;;49.65;20.52;;;;;;;;;;6196566;23;20043;-96
2023/05/09 10:32:47;;;;;;;41.33;21.25;;;;;;;;;;6177707;23;20012;-95
2023/05/09 10:35:18;;;;;;;36.60;17.90;;;;;;;;;;6199080;23;20025;-96
2023/05/09 10:37:45;;;;;;;42.30;19.27;;;;;;;;;;6172725;23;20016;-96
2023/05/09 10:40:14;;;;;;;38.13;20.40;;;;;;;;;;6195607;23;20354;-96
2023/05/09 10:43:16;;;;;;;40.42;19.55;;;;;;;;;;6196462;23;20364;-96
2023/05/09 10:45:44;;;;;;;40.70;20.55;;;;;;;;;;6128965;23;20014;-95
2023/05/09 10:48:23;;;;;;;40.22;18.58;;;;;;;;;;6170334;23;20032;-95
2023/05/09 10:50:53;;;;;;;35.33;17.08;;;;;;;;;;6196719;23;20001;-95
2023/05/09 10:53:23;;;;;;;42.92;20.40;;;;;;;;;;6172862;23;20004;-96
2023/05/09 10:56:12;;;;;;;31.05;14.10;;;;;;;;;;6196379;23;20004;-96
2023/05/09 10:58:59;;;;;;;35.20;19.08;;;;;;;;;;6196749;23;20012;-96
2023/05/09 11:01:33;;;;;;;33.33;16.08;;;;;;;;;;6175101;23;20076;-96
2023/05/09 11:04:21;;;;;;;33.45;18.40;;;;;;;;;;6196496;23;20020;-96
2023/05/09 11:06:58;;;;;;;34.92;18.52;;;;;;;;;;6196962;23;20055;-95
2023/05/09 11:09:31;;;;;;;35.53;18.48;;;;;;;;;;6175569;23;20009;-96
2023/05/09 11:12:19;;;;;;;34.42;17.73;;;;;;;;;;6196023;23;20011;-96
2023/05/09 11:14:52;;;;;;;36.35;20.05;;;;;;;;;;6222084;23;20023;-96
2023/05/09 11:17:21;;;;;;;36.72;17.92;;;;;;;;;;6195419;23;20015;-96
2023/05/09 11:19:51;;;;;;;39.42;18.17;;;;;;;;;;6195325;23;20015;-96
2023/05/09 11:22:36;;;;;;;35.55;17.48;;;;;;;;;;6195468;23;20039;-96
2023/05/09 11:25:11;;;;;;;37.55;18.38;;;;;;;;;;6194769;23;20024;-96
2023/05/09 11:27:48;;;;;;;40.38;18.67;;;;;;;;;;6195795;23;20008;-96
2023/05/09 11:30:16;;;;;;;38.33;18.95;;;;;;;;;;6171983;23;20013;-96
2023/05/09 11:32:43;;;;;;;31.75;17.08;;;;;;;;;;6168811;23;20047;-96
2023/05/09 11:35:13;;;;;;;39.80;19.45;;;;;;;;;;6196518;23;20005;-96
2023/05/09 11:40:51;;;;;;;38.60;18.65;;;;;;;;;;6205901;23;20019;-96
2023/05/09 11:43:20;;;;;;;30.73;17.27;;;;;;;;;;6195990;23;20001;-96
2023/05/09 11:45:49;;;;;;;34.28;17.40;;;;;;;;;;6195857;23;20004;-96
2023/05/09 11:48:22;;;;;;;35.60;17.65;;;;;;;;;;6171467;23;20011;-96
2023/05/09 11:50:49;;;;;;;30.65;17.42;;;;;;;;;;6171027;23;20013;-96
2023/05/09 11:53:16;;;;;;;35.90;17.23;;;;;;;;;;6196531;23;20872;-96
2023/05/09 11:55:42;;;;;;;36.75;17.33;;;;;;;;;;6196097;23;20012;-95
2023/05/09 11:58:09;;;;;;;37.10;18.05;;;;;;;;;;6171127;23;20031;-96
2023/05/09 12:00:38;;;;;;;31.23;18.25;;;;;;;;;;6196718;23;20012;-96
2023/05/09 12:03:05;;;;;;;30.10;16.83;;;;;;;;;;6172512;23;20070;-96
2023/05/09 12:05:34;;;;;;;32.47;16.95;;;;;;;;;;6171554;23;20051;-96
2023/05/09 12:08:04;;;;;;;35.58;17.75;;;;;;;;;;6172991;23;20015;-96
2023/05/09 12:10:30;;;;;;;32.60;17.83;;;;;;;;;;6170708;23;20521;-96
2023/05/09 12:12:59;;;;;;;34.28;16.75;;;;;;;;;;6171945;23;20012;-96
2023/05/09 12:15:28;;;;;;;31.98;16.70;;;;;;;;;;6170645;23;20119;-96
2023/05/09 12:18:02;;;;;;;34.78;17.15;;;;;;;;;;6172581;23;20126;-95
2023/05/09 12:20:42;;;;;;;27.75;14.25;;;;;;;;;;6194522;23;20011;-95
2023/05/09 12:23:10;;;;;;;30.70;15.35;;;;;;;;;;6206123;22;20166;-95
2023/05/09 12:26:00;;;;;;;26.45;15.27;;;;;;;;;;6227291;23;19999;-96
2023/05/09 12:28:26;;;;;;;29.70;15.23;;;;;;;;;;6200186;23;20015;-95
2023/05/09 12:30:53;;;;;;;28.35;14.70;;;;;;;;;;6228078;23;20040;-96
2023/05/09 12:33:24;;;;;;;36.35;15.82;;;;;;;;;;6203274;23;20491;-95
2023/05/09 12:36:10;;;;;;;26.58;14.38;;;;;;;;;;6227991;23;20513;-95
2023/05/09 12:38:37;;;;;;;26.60;14.27;;;;;;;;;;6228954;23;20064;-96
2023/05/09 12:41:07;;;;;;;21.73;12.98;;;;;;;;;;6228350;23;20075;-96
2023/05/09 12:43:59;;;;;;;27.35;14.88;;;;;;;;;;6246333;22;20012;-96
2023/05/09 15:06:09;;;;;;;42.08;22.67;;;;;;;;;;6277304;22;20078;-95
2023/05/09 15:08:43;;;;;;;41.20;22.23;;;;;;;;;;6277202;22;20023;-93
2023/05/09 15:11:16;;;;;;;34.88;19.45;;;;;;;;;;6255775;22;20019;-94
2023/05/09 16:20:26;;;;;;;20.38;11.77;;;;;;;;;;6285669;22;20034;-94
2023/05/09 16:22:52;;;;;;;23.27;12.60;;;;;;;;;;6255680;22;20023;-95
2023/05/09 16:25:19;;;;;;;19.83;10.77;;;;;;;;;;6252403;22;20110;-93
2023/05/09 16:27:46;;;;;;;16.45;9.90;;;;;;;;;;6254561;22;20008;-93
2023/05/09 16:30:12;;;;;;;18.85;10.27;;;;;;;;;;6252918;22;20083;-92
2023/05/09 16:32:39;;;;;;;15.25;9.38;;;;;;;;;;6254417;22;20004;-92
2023/05/09 16:35:06;;;;;;;15.77;7.70;;;;;;;;;;6254513;22;20227;-92
2023/05/09 16:37:34;;;;;;;14.18;8.27;;;;;;;;;;6281293;22;20007;-92
2023/05/09 16:40:00;;;;;;;13.68;7.90;;;;;;;;;;6280898;22;20003;-93
2023/05/09 16:42:27;;;;;;;19.15;8.45;;;;;;;;;;6252957;22;20458;-93
2023/05/09 16:44:54;;;;;;;12.52;6.93;;;;;;;;;;6278985;22;20333;-93
2023/05/09 16:47:20;;;;;;;13.27;7.28;;;;;;;;;;6278929;22;20310;-93
2023/05/09 16:49:53;;;;;;;14.88;7.80;;;;;;;;;;6253031;22;20039;-92
2023/05/09 16:52:21;;;;;;;16.13;7.80;;;;;;;;;;6252485;22;20016;-92
2023/05/09 16:54:49;;;;;;;17.48;7.90;;;;;;;;;;6254430;22;20003;-92
2023/05/09 16:57:15;;;;;;;16.70;8.75;;;;;;;;;;6280357;22;20075;-91
2023/05/09 16:59:42;;;;;;;16.33;8.10;;;;;;;;;;6253120;22;20016;-91
2023/05/09 17:02:08;;;;;;;16.13;10.00;;;;;;;;;;6278395;22;20016;-91
2023/05/09 17:04:34;;;;;;;13.35;7.05;;;;;;;;;;6253409;22;20469;-92
2023/05/09 17:07:00;;;;;;;10.75;6.72;;;;;;;;;;6276632;22;20004;-91
2023/05/09 17:09:26;;;;;;;10.60;6.38;;;;;;;;;;6251555;22;20207;-91
2023/05/09 17:11:56;;;;;;;11.90;7.43;;;;;;;;;;6251419;22;20031;-91
2023/05/09 17:14:22;;;;;;;10.82;6.40;;;;;;;;;;6251224;22;20028;-92
2023/05/09 17:16:48;;;;;;;16.30;8.40;;;;;;;;;;6252322;22;20115;-91
2023/05/09 17:19:15;;;;;;;12.07;7.20;;;;;;;;;;6251683;22;20472;-92
2023/05/09 17:21:47;;;;;;;25.85;12.52;;;;;;;;;;6252465;22;20098;-91
2023/05/09 17:24:14;;;;;;;12.15;7.18;;;;;;;;;;6252764;22;20012;-91
2023/05/09 17:26:40;;;;;;;13.02;7.50;;;;;;;;;;6251289;22;20020;-91
2023/05/09 17:29:06;;;;;;;10.10;6.43;;;;;;;;;;6276314;22;20090;-91
2023/05/09 17:31:33;;;;;;;9.80;6.20;;;;;;;;;;6251570;22;20016;-92
2023/05/09 17:34:00;;;;;;;9.05;5.45;;;;;;;;;;6275359;22;19999;-92
2023/05/09 17:36:26;;;;;;;11.15;5.53;;;;;;;;;;6250762;22;20092;-91
2023/05/09 17:38:52;;;;;;;12.85;6.78;;;;;;;;;;6251658;22;20019;-92
2023/05/09 17:41:18;;;;;;;10.73;6.28;;;;;;;;;;6253296;22;20008;-93
2023/05/09 17:43:44;;;;;;;11.40;6.60;;;;;;;;;;6251058;22;20022;-91
2023/05/09 17:46:13;;;;;;;9.82;4.95;;;;;;;;;;6252581;22;20023;-91
2023/05/09 17:48:40;;;;;;;6.53;4.45;;;;;;;;;;6251100;22;20034;-91
2023/05/09 17:51:07;;;;;;;10.63;6.63;;;;;;;;;;6250407;22;20014;-90
2023/05/09 17:53:33;;;;;;;9.02;6.07;;;;;;;;;;6250894;22;20004;-90
2023/05/09 17:55:59;;;;;;;10.80;5.40;;;;;;;;;;6251661;22;20079;-90
2023/05/09 17:58:26;;;;;;;11.13;5.85;;;;;;;;;;6249592;22;20007;-90
2023/05/09 18:00:54;;;;;;;12.18;6.35;;;;;;;;;;6249890;22;20077;-90
2023/05/09 18:03:20;;;;;;;13.10;6.45;;;;;;;;;;6251000;22;20031;-92
2023/05/09 18:05:47;;;;;;;10.95;6.45;;;;;;;;;;6274252;22;20022;-90
2023/05/09 18:08:13;;;;;;;13.82;7.82;;;;;;;;;;6251202;22;20011;-91
2023/05/09 18:10:40;;;;;;;12.52;6.57;;;;;;;;;;6275575;22;20054;-90
2023/05/09 18:13:06;;;;;;;12.75;7.07;;;;;;;;;;6250883;22;20015;-89
2023/05/09 18:15:36;;;;;;;12.43;6.70;;;;;;;;;;6264738;22;20012;-90